createdAt,value
2024-01-15T00:00:58.914Z,59.73
2024-01-15T00:04:05.984Z,59.57
2024-01-15T00:07:14.577Z,59.67
2024-01-15T00:10:21.773Z,59.39
2024-01-15T00:13:28.577Z,59.62
2024-01-15T00:16:35.342Z,59.56
2024-01-15T00:19:42.314Z,59.36
2024-01-15T00:22:51.712Z,59.51
2024-01-15T00:25:57.675Z,59.38
2024-01-15T00:29:04.451Z,59.37
2024-01-15T00:32:10.655Z,59.35
2024-01-15T00:35:18.486Z,59.53
2024-01-15T00:38:27.471Z,59.68
2024-01-15T00:41:36.776Z,59.50
2024-01-15T00:44:42.447Z,59.55
2024-01-15T00:47:49.278Z,59.73
2024-01-15T00:50:55.852Z,59.85
2024-01-15T00:54:05.256Z,59.78
2024-01-15T00:57:11.154Z,60.03
2024-01-15T01:00:18.980Z,59.94
2024-01-15T01:03:25.525Z,59.96
2024-01-15T01:06:34.287Z,60.11
2024-01-15T01:09:43.142Z,60.07
2024-01-15T01:12:49.684Z,59.82
2024-01-15T01:15:55.343Z,59.88
2024-01-15T01:19:02.145Z,59.72
2024-01-15T01:22:08.388Z,59.84
2024-01-15T01:25:17.722Z,59.99
2024-01-15T01:28:23.346Z,59.96
2024-01-15T01:31:29.929Z,59.61
2024-01-15T01:34:45.361Z,59.79
2024-01-15T01:37:52.040Z,59.68
2024-01-15T01:41:00.403Z,59.21
2024-01-15T01:44:08.745Z,59.20
2024-01-15T01:47:14.838Z,59.18
2024-01-15T01:50:22.521Z,58.75
2024-01-15T01:53:30.515Z,58.87
2024-01-15T01:56:40.467Z,58.60
2024-01-15T01:59:46.425Z,58.79
2024-01-15T02:02:53.612Z,58.54
2024-01-15T02:06:00.643Z,58.60
2024-01-15T02:09:08.621Z,58.15
2024-01-15T02:12:17.246Z,58.11
2024-01-15T02:15:23.831Z,58.04
2024-01-15T02:18:30.404Z,57.69
2024-01-15T02:21:36.826Z,57.59
2024-01-15T02:24:46.534Z,57.48
2024-01-15T02:27:52.660Z,57.50
2024-01-15T02:30:59.404Z,57.51
2024-01-15T02:34:05.674Z,57.06
2024-01-15T02:37:12.170Z,57.06
2024-01-15T02:40:20.473Z,57.14
2024-01-15T02:43:26.991Z,56.98
2024-01-15T02:46:32.694Z,57.11
2024-01-15T02:49:39.288Z,57.17
2024-01-15T02:52:46.665Z,57.23
2024-01-15T02:55:55.912Z,57.13
2024-01-15T02:59:01.716Z,57.04
2024-01-15T03:02:08.561Z,57.28
2024-01-15T03:05:14.676Z,57.09
2024-01-15T03:08:21.249Z,57.22
2024-01-15T03:11:29.780Z,57.21
2024-01-15T03:14:36.317Z,57.22
2024-01-15T03:17:42.030Z,56.88
2024-01-15T03:20:48.587Z,57.02
2024-01-15T03:23:54.320Z,56.85
2024-01-15T03:27:03.446Z,57.13
2024-01-15T03:30:12.697Z,56.98
2024-01-15T03:33:19.526Z,57.05
2024-01-15T03:36:25.384Z,56.84
2024-01-15T03:39:32.112Z,56.84
2024-01-15T03:42:40.564Z,56.89
2024-01-15T03:45:47.215Z,57.18
2024-01-15T03:48:53.172Z,56.92
2024-01-15T03:51:59.659Z,56.76
2024-01-15T03:55:05.393Z,57.05
2024-01-15T03:58:16.208Z,57.00
2024-01-15T04:01:21.898Z,56.97
2024-01-15T04:04:28.531Z,56.86
2024-01-15T04:07:34.341Z,56.88
2024-01-15T04:10:40.935Z,57.00
2024-01-15T04:13:49.519Z,56.96
2024-01-15T04:16:55.999Z,56.80
2024-01-15T04:20:02.070Z,57.16
2024-01-15T04:23:08.849Z,57.19
2024-01-15T04:26:14.584Z,57.05
2024-01-15T04:29:23.607Z,56.88
2024-01-15T04:32:29.383Z,57.12
2024-01-15T04:35:36.006Z,57.27
2024-01-15T04:38:41.679Z,57.32
2024-01-15T04:41:48.282Z,57.12
2024-01-15T04:44:56.818Z,57.06
2024-01-15T04:48:03.474Z,57.31
2024-01-15T04:51:12.955Z,57.59
2024-01-15T04:54:19.932Z,57.67
2024-01-15T04:57:25.703Z,57.58
2024-01-15T05:00:35.109Z,57.54
2024-01-15T05:03:40.933Z,57.56
2024-01-15T05:06:47.739Z,57.76
2024-01-15T05:09:53.716Z,57.63
2024-01-15T05:13:00.287Z,57.68
2024-01-15T05:16:09.454Z,57.61
2024-01-15T05:19:16.136Z,57.81
2024-01-15T05:22:22.521Z,57.45
2024-01-15T05:25:29.047Z,57.56
2024-01-15T05:28:34.842Z,57.61
2024-01-15T05:31:44.092Z,57.66
2024-01-15T05:34:50.009Z,57.80
2024-01-15T05:37:56.538Z,57.74
2024-01-15T05:41:02.191Z,57.76
2024-01-15T05:44:08.824Z,57.78
2024-01-15T05:47:17.300Z,57.72
2024-01-15T05:50:23.814Z,57.96
2024-01-15T05:53:29.696Z,57.70
2024-01-15T05:56:36.159Z,57.62
2024-01-15T05:59:41.898Z,57.76
2024-01-15T06:02:51.187Z,57.87
2024-01-15T06:05:56.989Z,57.79
2024-01-15T06:09:06.819Z,57.75
2024-01-15T06:12:13.831Z,57.73
2024-01-15T06:15:20.542Z,57.71
2024-01-15T06:18:29.168Z,57.73
2024-01-15T06:21:35.734Z,57.67
2024-01-15T06:24:41.545Z,57.60
2024-01-15T06:27:48.028Z,57.83
2024-01-15T06:30:54.371Z,57.51
2024-01-15T06:34:03.605Z,57.68
2024-01-15T06:37:10.104Z,57.54
2024-01-15T06:40:16.635Z,57.41
2024-01-15T06:43:22.740Z,57.76
2024-01-15T06:46:29.217Z,57.63
2024-01-15T06:49:37.596Z,57.75
2024-01-15T06:52:44.073Z,57.44
2024-01-15T06:55:50.722Z,57.55
2024-01-15T06:58:57.224Z,57.42
2024-01-15T07:02:03.612Z,57.38
2024-01-15T07:05:13.059Z,57.70
2024-01-15T07:08:18.839Z,57.67
2024-01-15T07:11:25.284Z,57.38
2024-01-15T07:14:31.063Z,57.47
2024-01-15T07:17:40.785Z,57.76
2024-01-15T07:20:49.387Z,57.70
2024-01-15T07:23:55.785Z,57.49
2024-01-15T07:27:01.556Z,57.57
2024-01-15T07:30:10.567Z,57.50
2024-01-15T07:33:16.651Z,57.64
2024-01-15T07:36:26.022Z,57.62
2024-01-15T07:39:32.202Z,57.60
2024-01-15T07:42:39.578Z,57.38
2024-01-15T07:45:46.839Z,57.50
2024-01-15T07:48:57.795Z,57.53
2024-01-15T07:52:06.668Z,57.44
2024-01-15T07:55:13.292Z,57.77
2024-01-15T07:58:19.142Z,57.78
2024-01-15T08:01:25.808Z,57.69
2024-01-15T08:04:31.868Z,57.60
2024-01-15T08:07:41.054Z,57.44
2024-01-15T08:10:47.315Z,57.28
2024-01-15T08:13:53.818Z,57.51
2024-01-15T08:16:59.630Z,57.94
2024-01-15T08:20:06.945Z,57.52
2024-01-15T08:23:15.531Z,57.74
2024-01-15T08:26:22.824Z,58.10
2024-01-15T08:29:29.008Z,58.13
2024-01-15T08:32:37.470Z,61.46
2024-01-15T08:35:43.251Z,64.33
2024-01-15T08:38:52.394Z,66.64
2024-01-15T08:41:58.047Z,67.36
2024-01-15T08:45:04.573Z,67.00
2024-01-15T08:48:10.847Z,65.76
2024-01-15T08:51:17.333Z,63.38
2024-01-15T08:54:25.685Z,62.14
2024-01-15T08:57:32.217Z,61.09
2024-01-15T09:00:38.114Z,60.67
2024-01-15T09:03:45.811Z,59.81
2024-01-15T09:06:51.845Z,60.11
2024-01-15T09:10:01.084Z,59.90
2024-01-15T09:13:07.468Z,59.04
2024-01-15T09:16:14.113Z,58.68
2024-01-15T09:19:20.029Z,57.79
2024-01-15T09:22:26.630Z,57.99
2024-01-15T09:25:34.973Z,56.98
2024-01-15T09:28:41.374Z,56.25
2024-01-15T09:31:47.170Z,55.74
2024-01-15T09:34:55.369Z,54.69
2024-01-15T09:38:01.875Z,54.68
2024-01-15T09:41:11.407Z,53.74
2024-01-15T09:44:18.205Z,54.07
2024-01-15T09:47:26.392Z,53.79
2024-01-15T09:50:32.391Z,53.22
2024-01-15T09:53:41.526Z,53.30
2024-01-15T09:56:50.794Z,53.17
2024-01-15T10:00:01.600Z,53.09
2024-01-15T10:03:12.573Z,53.08
2024-01-15T10:06:22.884Z,53.09
2024-01-15T10:09:29.010Z,52.75
2024-01-15T10:12:43.501Z,52.42
2024-01-15T10:15:51.055Z,52.01
2024-01-15T10:18:57.675Z,51.74
2024-01-15T10:22:04.582Z,51.46
2024-01-15T10:25:15.314Z,51.24
2024-01-15T10:28:24.238Z,51.14
2024-01-15T10:31:31.751Z,50.62
2024-01-15T10:34:37.989Z,50.45
2024-01-15T10:37:46.184Z,50.35
2024-01-15T10:40:52.325Z,49.85
2024-01-15T10:44:01.583Z,49.41
2024-01-15T10:47:09.417Z,49.31
2024-01-15T10:50:16.624Z,49.25
2024-01-15T10:53:22.839Z,49.52
2024-01-15T10:56:34.213Z,49.64
2024-01-15T10:59:42.901Z,49.22
2024-01-15T11:02:51.216Z,48.83
2024-01-15T11:05:58.583Z,49.14
2024-01-15T11:09:05.787Z,48.64
2024-01-15T11:12:17.466Z,48.94
2024-01-15T11:15:30.620Z,49.33
2024-01-15T11:18:42.423Z,49.31
2024-01-15T11:21:49.196Z,49.51
2024-01-15T11:24:55.078Z,49.82
2024-01-15T11:28:01.969Z,50.34
2024-01-15T11:31:10.598Z,50.48
2024-01-15T11:34:17.454Z,50.64
2024-01-15T11:37:24.994Z,50.74
2024-01-15T11:40:44.305Z,50.61
2024-01-15T11:43:50.082Z,51.07
2024-01-15T11:47:04.251Z,51.56
2024-01-15T11:50:13.065Z,51.58
2024-01-15T11:53:36.828Z,51.55
2024-01-15T11:56:43.319Z,51.88
2024-01-15T11:59:51.830Z,52.19
2024-01-15T12:03:03.589Z,52.38
2024-01-15T12:06:11.744Z,52.16
2024-01-15T12:09:17.580Z,52.09
2024-01-15T12:12:39.964Z,52.73
2024-01-15T12:15:47.223Z,52.62
2024-01-15T12:18:56.619Z,52.53
2024-01-15T12:22:02.364Z,52.26
2024-01-15T12:25:09.626Z,52.20
2024-01-15T12:28:15.833Z,52.26
2024-01-15T12:31:23.727Z,52.44
2024-01-15T12:34:33.946Z,52.53
2024-01-15T12:37:41.010Z,52.52
2024-01-15T12:40:50.408Z,51.92
2024-01-15T12:43:57.255Z,52.30
2024-01-15T12:47:03.185Z,52.13
2024-01-15T12:50:19.764Z,52.22
2024-01-15T12:53:26.939Z,51.92
2024-01-15T12:56:33.439Z,52.17
2024-01-15T12:59:39.238Z,52.25
2024-01-15T13:02:46.850Z,52.77
2024-01-15T13:05:55.299Z,53.35
2024-01-15T13:09:02.385Z,53.46
2024-01-15T13:12:09.726Z,53.52
2024-01-15T13:15:16.271Z,53.82
2024-01-15T13:18:22.201Z,54.65
2024-01-15T13:21:31.419Z,54.34
2024-01-15T13:24:37.483Z,53.92
2024-01-15T13:27:44.088Z,53.83
2024-01-15T13:30:49.884Z,53.74
2024-01-15T13:33:57.314Z,54.05
2024-01-15T13:37:06.120Z,53.47
2024-01-15T13:40:18.357Z,53.26
2024-01-15T13:43:28.409Z,53.17
2024-01-15T13:46:35.250Z,53.01
2024-01-15T13:49:41.018Z,52.49
2024-01-15T13:52:50.817Z,51.92
2024-01-15T13:55:56.823Z,51.59
2024-01-15T13:59:05.469Z,51.39
2024-01-15T14:02:11.571Z,51.60
2024-01-15T14:05:18.385Z,51.85
2024-01-15T14:08:26.708Z,51.84
2024-01-15T14:11:33.304Z,52.03
2024-01-15T14:14:39.097Z,52.04
2024-01-15T14:17:46.067Z,51.74
2024-01-15T14:20:52.050Z,51.82
2024-01-15T14:24:01.680Z,51.75
2024-01-15T14:27:09.031Z,51.61
2024-01-15T14:30:17.998Z,51.71
2024-01-15T14:33:24.103Z,51.46
2024-01-15T14:36:30.981Z,51.41
2024-01-15T14:39:39.405Z,51.45
2024-01-15T14:42:46.456Z,51.48
2024-01-15T14:45:52.330Z,51.37
2024-01-15T14:48:58.948Z,51.54
2024-01-15T14:52:04.918Z,51.57
2024-01-15T14:55:14.386Z,51.33
2024-01-15T14:58:20.328Z,51.17
2024-01-15T15:01:27.249Z,51.24
2024-01-15T15:04:33.302Z,51.33
2024-01-15T15:07:40.200Z,51.30
2024-01-15T15:10:49.834Z,51.60
2024-01-15T15:13:56.304Z,51.44
2024-01-15T15:17:02.143Z,51.51
2024-01-15T15:20:11.411Z,51.63
2024-01-15T15:23:18.274Z,52.17
2024-01-15T15:26:27.558Z,52.36
2024-01-15T15:29:33.274Z,52.31
2024-01-15T15:32:39.868Z,52.49
2024-01-15T15:35:45.569Z,52.68
2024-01-15T15:38:53.088Z,52.72
2024-01-15T15:42:02.469Z,52.85
2024-01-15T15:45:10.976Z,52.85
2024-01-15T15:48:16.856Z,52.86
2024-01-15T15:51:23.948Z,53.00
2024-01-15T15:54:29.652Z,53.02
2024-01-15T15:57:38.785Z,52.86
2024-01-15T16:00:45.095Z,52.99
2024-01-15T16:03:51.612Z,52.99
2024-01-15T16:06:58.210Z,53.07
2024-01-15T16:10:04.996Z,52.82
2024-01-15T16:13:15.626Z,52.91
2024-01-15T16:23:10.774Z,53.25
2024-01-15T16:23:27.518Z,53.29
2024-01-15T16:24:02.724Z,53.50
2024-01-15T16:26:48.520Z,53.29
2024-01-15T16:29:57.915Z,53.40
2024-01-15T16:33:03.855Z,53.31
2024-01-15T16:36:10.830Z,53.50
2024-01-15T16:39:16.629Z,53.61
2024-01-15T16:42:29.312Z,53.57
2024-01-15T16:45:37.802Z,53.89
2024-01-15T16:48:44.498Z,53.78
2024-01-15T16:51:50.291Z,53.79
2024-01-15T16:54:56.817Z,53.96
2024-01-15T16:58:02.653Z,54.19
2024-01-15T17:01:12.553Z,54.10
2024-01-15T17:04:18.427Z,54.09
2024-01-15T17:07:25.066Z,54.10
2024-01-15T17:10:32.558Z,53.98
2024-01-15T17:13:39.239Z,53.95
2024-01-15T17:16:47.924Z,54.39
2024-01-15T17:19:55.384Z,54.24
2024-01-15T17:23:01.155Z,54.06
2024-01-15T17:26:08.337Z,54.08
2024-01-15T17:29:14.178Z,54.49
2024-01-15T17:32:23.476Z,54.90
2024-01-15T17:35:29.793Z,56.83
2024-01-15T17:38:37.272Z,59.35
2024-01-15T17:41:43.242Z,59.98
2024-01-15T17:44:50.117Z,59.14
2024-01-15T17:47:58.573Z,58.99
2024-01-15T17:51:05.355Z,59.47
2024-01-15T17:54:11.322Z,59.87
2024-01-15T17:57:20.830Z,59.20
2024-01-15T18:00:27.439Z,59.37
2024-01-15T18:03:37.727Z,58.70
2024-01-15T18:06:43.809Z,58.62
2024-01-15T18:09:50.283Z,58.20
2024-01-15T18:12:55.982Z,58.07
2024-01-15T18:16:02.899Z,57.49
2024-01-15T18:19:12.037Z,57.39
2024-01-15T18:22:19.775Z,57.12
2024-01-15T18:25:25.470Z,56.98
2024-01-15T18:28:32.029Z,56.44
2024-01-15T18:31:37.778Z,56.43
2024-01-15T18:34:47.397Z,56.36
2024-01-15T18:37:53.691Z,55.61
2024-01-15T18:41:03.332Z,55.54
2024-01-15T18:44:09.322Z,55.69
2024-01-15T18:47:15.929Z,55.63
2024-01-15T18:50:24.389Z,55.62
2024-01-15T18:53:31.055Z,55.42
2024-01-15T18:56:39.674Z,55.60
2024-01-15T18:59:48.580Z,55.51
2024-01-15T19:02:58.915Z,55.42
2024-01-15T19:06:08.826Z,55.53
2024-01-15T19:09:14.833Z,55.49
2024-01-15T19:12:21.712Z,55.49
2024-01-15T19:15:27.525Z,55.34
2024-01-15T19:18:35.292Z,55.67
2024-01-15T19:21:44.576Z,55.49
2024-01-15T19:24:51.877Z,55.33
2024-01-15T19:27:58.403Z,55.47
2024-01-15T19:31:05.666Z,55.82
2024-01-15T19:34:11.479Z,55.92
2024-01-15T19:37:20.462Z,55.84
2024-01-15T19:40:29.777Z,55.93
2024-01-15T19:43:37.395Z,55.92
2024-01-15T19:46:44.010Z,56.25
2024-01-15T19:49:50.838Z,57.39
2024-01-15T19:52:59.225Z,59.22
2024-01-15T19:56:05.756Z,58.96
2024-01-15T19:59:11.753Z,58.68
2024-01-15T20:02:18.783Z,58.11
2024-01-15T20:05:25.331Z,58.62
2024-01-15T20:08:34.803Z,59.94
2024-01-15T20:11:41.998Z,61.20
2024-01-15T20:14:51.917Z,61.20
2024-01-15T20:17:58.824Z,61.65
2024-01-15T20:21:06.374Z,61.82
2024-01-15T20:24:22.933Z,61.76
2024-01-15T20:27:32.794Z,61.41
2024-01-15T20:30:42.096Z,61.43
2024-01-15T20:33:48.768Z,61.44
2024-01-15T20:36:54.639Z,61.77
2024-01-15T20:40:04.672Z,61.23
2024-01-15T20:43:11.428Z,60.68
2024-01-15T20:46:18.595Z,60.03
2024-01-15T20:49:24.724Z,59.72
2024-01-15T20:52:36.562Z,58.88
2024-01-15T20:55:45.372Z,58.50
2024-01-15T20:58:52.399Z,57.81
2024-01-15T21:01:58.328Z,57.69
2024-01-15T21:05:04.890Z,57.63
2024-01-15T21:08:10.700Z,57.33
2024-01-15T21:11:19.894Z,57.34
2024-01-15T21:14:25.719Z,57.49
2024-01-15T21:17:33.482Z,57.79
2024-01-15T21:20:39.507Z,57.26
2024-01-15T21:23:46.126Z,57.53
2024-01-15T21:26:54.512Z,58.03
2024-01-15T21:30:01.087Z,58.21
2024-01-15T21:33:09.437Z,57.83
2024-01-15T21:36:16.560Z,57.80
2024-01-15T21:39:22.325Z,57.54
2024-01-15T21:42:31.492Z,57.34
2024-01-15T21:45:39.501Z,57.65
2024-01-15T21:48:46.119Z,57.31
2024-01-15T21:51:51.839Z,57.47
2024-01-15T21:54:58.453Z,57.79
2024-01-15T21:58:07.591Z,57.87
2024-01-15T22:01:14.120Z,58.34
2024-01-15T22:04:19.905Z,57.95
2024-01-15T22:07:26.437Z,58.23
2024-01-15T22:10:32.093Z,58.57
2024-01-15T22:13:42.045Z,59.38
2024-01-15T22:16:47.908Z,60.37
2024-01-15T22:19:54.449Z,60.67
2024-01-15T22:23:00.178Z,60.79
2024-01-15T22:26:08.658Z,60.56
2024-01-15T22:29:17.097Z,60.93
2024-01-15T22:32:23.958Z,60.93
2024-01-15T22:35:30.053Z,60.45
2024-01-15T22:38:36.850Z,60.89
2024-01-15T22:41:42.815Z,62.01
2024-01-15T22:44:52.329Z,61.80
2024-01-15T22:47:58.368Z,61.78
2024-01-15T22:51:04.944Z,61.63
2024-01-15T22:54:10.696Z,61.47
2024-01-15T22:57:17.331Z,61.46
2024-01-15T23:00:25.695Z,61.71
2024-01-15T23:03:32.580Z,62.03
2024-01-15T23:06:38.568Z,62.20
2024-01-15T23:09:45.581Z,62.55
2024-01-15T23:12:51.266Z,62.78
2024-01-15T23:16:00.645Z,63.38
2024-01-15T23:19:06.927Z,64.76
2024-01-15T23:22:13.947Z,64.38
2024-01-15T23:25:20.238Z,64.39
2024-01-15T23:28:26.816Z,64.24
2024-01-15T23:31:35.291Z,64.36
2024-01-15T23:34:42.140Z,64.67
2024-01-15T23:37:48.312Z,64.29
2024-01-15T23:40:54.791Z,64.48
2024-01-15T23:44:00.643Z,64.66
2024-01-15T23:47:09.934Z,64.44
2024-01-15T23:50:15.904Z,64.73
2024-01-15T23:53:22.740Z,64.33
2024-01-15T23:56:28.539Z,64.09
2024-01-15T23:59:37.091Z,63.93
